メインページ
METAR-TAF:

METAR-TAF

空港 :

レシフェ, ペルナンブーコ州, ブラジル

レシフェ/グアララペス・ジルベルト・フレイレ国際空港

緯度: 08-08S, 経度: 034-55W, 海抜: 19m

現時点の気象観測

当レポートは15分前の06:00(UTC)に作成
変向風 2kt
気温 27°C
湿度 94%
気圧 1011 hPa
視程10km以上
高度1800ftの千切れ雲あり

METAR: SBRF 280600Z VRB02KT 9999 BKN018 27/26 Q1011

時間: 03:15 (06:15 UTC)

予報

当レポートは2時間15分前の04:00(UTC)に作成
予報は28日の 06時(UTC)から 29日の 06時(UTC)まで有効
の風 8kt
視程: 8000m
高度2000ftの雲は散在している

TAF: SBRF 280400Z 2806/2906 08008KT 8000 SCT020 TN26/2808Z TX31/2816Z RMK PEU

4,000以上の空港の気象観測と天気予報(METAR報とTAF報)

利用可能な観測所は地図上に黄色い丸と赤い丸で示す。

丸の上にカーソルを重ねると観測所名を参照できる。

次にクリックすると気象観測と天気予報を参照できる。

マップの切り替え:黒色「×」印の緑ボタンをクリックして拡大、「-」印の緑ボタンをクリックして縮小、緑色の三角印をクリックして隣りの地図に切り替え


METAR-TAF: